Time;durP1;ratioP1;P1;durP2;ratioP2;P2;SDS_P1;SDS_P2;PMS_P1;PMS_P2;Temp;Humidity;BMP_temperature;BMP_pressure;BME280_temperature;BME280_humidity;BME280_pressure;Samples;Min_cycle;Max_cycle;Signal;HPM_P1;HPM_P2
2022/10/21 00:00:38;;;;;;;10.95;5.88;;;;;;;9.32;84.54;100810.06;4923810;29;20052;-81
2022/10/21 00:03:05;;;;;;;11.60;5.22;;;;;;;9.32;84.04;100808.31;4974958;28;20054;-81
2022/10/21 00:05:33;;;;;;;7.75;5.22;;;;;;;9.27;84.36;100791.06;4949297;28;20050;-83
2022/10/21 00:08:00;;;;;;;10.02;5.68;;;;;;;9.25;84.86;100792.94;4936387;28;20051;-83
2022/10/21 00:10:28;;;;;;;10.15;5.20;;;;;;;9.26;85.54;100800.72;4922196;28;20034;-82
2022/10/21 00:12:55;;;;;;;13.43;6.45;;;;;;;9.25;85.15;100793.78;4949551;29;20061;-81
2022/10/21 00:15:23;;;;;;;12.63;6.10;;;;;;;9.19;85.80;100786.22;4945244;28;20472;-82
2022/10/21 00:17:50;;;;;;;8.85;5.93;;;;;;;9.20;85.32;100784.44;4942880;29;20055;-81
2022/10/21 00:20:18;;;;;;;13.27;6.65;;;;;;;9.18;85.01;100776.63;4947584;28;20106;-82
2022/10/21 00:22:46;;;;;;;7.88;5.10;;;;;;;9.18;85.86;100783.66;4959495;28;20099;-81
2022/10/21 00:25:14;;;;;;;14.02;6.45;;;;;;;9.18;85.64;100773.13;4937777;28;20046;-82
2022/10/21 00:27:41;;;;;;;9.95;6.13;;;;;;;9.18;85.61;100791.53;4948788;29;20074;-81
2022/10/21 00:30:11;;;;;;;9.05;5.18;;;;;;;9.18;86.67;100802.03;4966582;28;20055;-80
2022/10/21 00:32:38;;;;;;;9.20;5.40;;;;;;;9.17;85.73;100809.06;4932064;29;20055;-81
2022/10/21 00:35:07;;;;;;;10.05;6.00;;;;;;;9.15;85.55;100815.34;4938947;28;20047;-80
2022/10/21 00:37:34;;;;;;;8.98;5.38;;;;;;;9.14;85.91;100825.00;4946676;29;20087;-81
2022/10/21 00:40:03;;;;;;;14.43;5.55;;;;;;;9.16;85.73;100819.66;4928999;29;20051;-83
2022/10/21 00:42:34;;;;;;;10.07;5.82;;;;;;;9.20;85.97;100823.84;4915685;28;20046;-82
2022/10/21 00:45:03;;;;;;;11.15;5.40;;;;;;;9.21;86.22;100826.38;4955776;29;20045;-82
2022/10/21 00:47:40;;;;;;;10.95;6.00;;;;;;;9.21;85.56;100826.38;4955879;28;20318;-82
2022/10/21 00:50:30;;;;;;;9.85;6.20;;;;;;;9.20;86.69;100814.19;4957622;28;20138;-80
2022/10/21 00:52:58;;;;;;;10.50;5.60;;;;;;;9.21;86.91;100804.50;4928323;29;20059;-81
2022/10/21 00:55:27;;;;;;;7.28;5.25;;;;;;;9.20;86.96;100808.06;4934245;28;20047;-82
2022/10/21 00:57:54;;;;;;;10.02;6.22;;;;;;;9.19;86.86;100803.75;4912759;29;20047;-83
2022/10/21 01:00:22;;;;;;;8.68;5.78;;;;;;;9.18;87.11;100810.75;4923522;28;20043;-82
2022/10/21 01:02:49;;;;;;;11.90;6.18;;;;;;;9.20;87.57;100808.06;4925966;29;20051;-81
2022/10/21 01:05:17;;;;;;;9.88;6.22;;;;;;;9.19;87.49;100799.34;4942285;28;20044;-80
2022/10/21 01:07:46;;;;;;;8.52;5.55;;;;;;;9.18;87.56;100789.75;4928951;29;20056;-81
2022/10/21 01:10:15;;;;;;;10.95;5.88;;;;;;;9.16;87.23;100783.72;4926091;28;20055;-84
2022/10/21 01:13:08;;;;;;;8.45;5.55;;;;;;;9.19;88.11;100782.75;4924077;29;20056;-80
2022/10/21 01:15:42;;;;;;;7.30;5.63;;;;;;;9.20;88.21;100763.44;4955906;28;20210;-83
2022/10/21 01:18:16;;;;;;;9.18;6.03;;;;;;;9.18;88.62;100760.84;4945513;28;20070;-82
2022/10/21 01:21:05;;;;;;;9.52;6.95;;;;;;;9.17;88.21;100774.91;4958594;28;20060;-82
2022/10/21 01:23:43;;;;;;;10.88;5.45;;;;;;;9.18;88.20;100774.00;4953641;28;20086;-80
2022/10/21 01:26:30;;;;;;;8.18;5.80;;;;;;;9.13;89.00;100771.59;4934095;29;20055;-81
2022/10/21 01:29:10;;;;;;;;;;;;;;;9.09;89.52;100766.56;4962317;28;20055;-81
2022/10/21 01:32:09;;;;;;;9.02;5.78;;;;;;;9.07;90.53;100757.94;4953766;29;20021;-81
2022/10/21 01:35:02;;;;;;;9.90;6.28;;;;;;;9.05;90.34;100749.28;4928237;28;20035;-81
2022/10/21 01:37:35;;;;;;;12.02;6.68;;;;;;;9.06;90.78;100743.13;4962801;28;20134;-82
2022/10/21 01:40:30;;;;;;;10.60;5.93;;;;;;;9.08;90.94;100734.22;4924764;29;20034;-82
2022/10/21 01:43:48;;;;;;;10.80;6.07;;;;;;;9.12;90.39;100730.50;4949274;29;20055;-81
2022/10/21 01:46:28;;;;;;;8.77;5.97;;;;;;;9.09;90.81;100729.81;4891010;29;20055;-80
2022/10/21 01:49:02;;;;;;;10.70;7.03;;;;;;;9.06;91.32;100735.25;4900384;29;20061;-81
2022/10/21 01:51:30;;;;;;;7.50;6.07;;;;;;;9.08;90.74;100742.09;4918714;28;20059;-81
2022/10/21 01:54:05;;;;;;;12.68;6.03;;;;;;;9.12;89.41;100738.38;4944085;29;20446;-80
2022/10/21 01:56:33;;;;;;;12.18;6.70;;;;;;;9.10;90.35;100737.63;4941669;28;20046;-82
2022/10/21 01:59:01;;;;;;;11.02;6.25;;;;;;;9.10;90.70;100727.13;4963694;28;20059;-81
2022/10/21 02:01:31;;;;;;;11.05;6.00;;;;;;;9.10;91.03;100711.38;4945169;28;20039;-82
2022/10/21 02:04:00;;;;;;;8.27;6.22;;;;;;;9.09;91.52;100714.06;4926831;28;20051;-79
2022/10/21 02:06:28;;;;;;;10.50;6.80;;;;;;;9.12;91.60;100703.41;4950853;28;20494;-80
2022/10/21 02:08:56;;;;;;;13.80;7.43;;;;;;;9.12;91.31;100701.63;4960624;28;20049;-82
2022/10/21 02:11:23;;;;;;;11.38;5.55;;;;;;;9.13;91.66;100695.44;4944174;28;20050;-83
2022/10/21 02:13:56;;;;;;;10.90;5.90;;;;;;;9.17;92.12;100690.03;4932100;29;20051;-82
2022/10/21 02:16:32;;;;;;;10.23;5.57;;;;;;;9.20;91.56;100693.34;4932032;29;20055;-81
2022/10/21 02:19:00;;;;;;;9.20;5.90;;;;;;;9.20;91.48;100685.47;4920647;28;20074;-81
2022/10/21 02:21:33;;;;;;;9.77;6.63;;;;;;;9.25;91.37;100674.72;4968952;28;20063;-83
2022/10/21 02:24:12;;;;;;;8.77;5.75;;;;;;;9.28;91.34;100672.78;4935385;29;20089;-83
2022/10/21 02:26:40;;;;;;;9.77;6.40;;;;;;;9.32;91.78;100666.44;4966444;28;20047;-84
2022/10/21 02:29:08;;;;;;;10.55;6.82;;;;;;;9.34;90.60;100661.09;4918295;28;20047;-81
2022/10/21 02:31:49;;;;;;;10.43;6.45;;;;;;;9.33;90.74;100655.00;4931148;28;20065;-84
2022/10/21 02:34:30;;;;;;;11.98;6.40;;;;;;;9.32;90.58;100655.94;4961151;28;20055;-83
2022/10/21 02:37:22;;;;;;;9.70;6.55;;;;;;;9.31;91.26;100658.63;4964424;28;20102;-82
2022/10/21 02:39:57;;;;;;;8.57;5.78;;;;;;;9.30;91.06;100670.91;4973417;28;20255;-83
2022/10/21 02:42:28;;;;;;;9.00;6.35;;;;;;;9.34;90.87;100671.59;4939776;28;20043;-83
2022/10/21 02:44:56;;;;;;;10.25;5.72;;;;;;;9.34;90.80;100672.44;4975977;28;20058;-83
2022/10/21 02:47:25;;;;;;;8.02;5.75;;;;;;;9.36;90.45;100664.47;4940596;28;20054;-82
2022/10/21 02:49:52;;;;;;;10.80;6.03;;;;;;;9.41;91.02;100658.97;4948647;29;20055;-83
2022/10/21 02:52:20;;;;;;;9.88;5.80;;;;;;;9.41;90.98;100653.72;4919939;28;20039;-85
2022/10/21 02:54:48;;;;;;;12.05;6.07;;;;;;;9.42;90.87;100647.56;4950092;29;20055;-83
2022/10/21 02:57:15;;;;;;;7.47;5.53;;;;;;;9.43;90.15;100646.63;4916431;28;20521;-83
2022/10/21 02:59:43;;;;;;;12.32;7.13;;;;;;;9.45;90.57;100637.72;4973921;28;20051;-83
2022/10/21 03:02:10;;;;;;;10.48;6.00;;;;;;;9.46;90.51;100626.28;4949040;28;20043;-83
2022/10/21 03:04:38;;;;;;;10.63;6.00;;;;;;;9.46;89.87;100607.06;4959901;29;20046;-84
2022/10/21 03:07:05;;;;;;;10.55;6.88;;;;;;;9.47;90.01;100603.50;4936474;28;20486;-84
2022/10/21 03:09:33;;;;;;;10.18;6.57;;;;;;;9.51;89.96;100605.00;4913017;29;20101;-83
2022/10/21 03:12:00;;;;;;;8.98;6.20;;;;;;;9.53;90.78;100597.88;4970363;28;20051;-83
2022/10/21 03:14:28;;;;;;;8.50;6.57;;;;;;;9.53;90.73;100609.25;4946707;28;20074;-82
2022/10/21 03:16:55;;;;;;;9.05;6.50;;;;;;;9.55;90.75;100615.28;4956333;28;20047;-83
2022/10/21 03:19:23;;;;;;;10.85;6.75;;;;;;;9.58;91.25;100622.97;4946774;29;20059;-83
2022/10/21 03:21:51;;;;;;;10.43;6.65;;;;;;;9.59;91.05;100629.94;4955576;28;20196;-84
2022/10/21 03:24:21;;;;;;;11.45;6.78;;;;;;;9.59;91.05;100626.44;4949646;29;20150;-82
2022/10/21 03:26:55;;;;;;;9.15;7.35;;;;;;;9.58;91.15;100619.50;4939171;29;20056;-83
2022/10/21 03:29:23;;;;;;;9.70;6.95;;;;;;;9.62;91.21;100621.88;4969066;28;20134;-82
2022/10/21 03:31:50;;;;;;;12.07;7.53;;;;;;;9.66;91.31;100629.59;4914978;29;20514;-84
2022/10/21 03:34:18;;;;;;;11.35;6.18;;;;;;;9.68;91.35;100630.34;4953843;28;20050;-84
2022/10/21 03:36:46;;;;;;;10.18;6.45;;;;;;;9.72;91.67;100629.25;4949255;28;20035;-83
2022/10/21 03:39:13;;;;;;;11.45;6.90;;;;;;;9.70;91.86;100623.25;4943438;28;20055;-83
2022/10/21 03:41:41;;;;;;;8.90;6.55;;;;;;;9.68;92.08;100617.22;4953243;28;20061;-83
2022/10/21 03:44:08;;;;;;;9.98;6.40;;;;;;;9.66;91.55;100614.69;4928759;28;20063;-83
2022/10/21 03:46:36;;;;;;;10.05;7.10;;;;;;;9.69;91.96;100606.63;4967009;28;20051;-83
2022/10/21 03:49:03;;;;;;;11.02;7.22;;;;;;;9.70;91.71;100613.56;4949278;28;20098;-84
2022/10/21 03:51:38;;;;;;;8.93;6.53;;;;;;;9.71;92.03;100619.69;4954827;28;20051;-82
2022/10/21 03:54:05;;;;;;;11.93;6.78;;;;;;;9.69;91.79;100618.94;4916006;28;20067;-83
2022/10/21 03:56:33;;;;;;;13.40;6.65;;;;;;;9.72;91.65;100621.38;4920010;29;20066;-83
2022/10/21 03:59:00;;;;;;;12.93;7.22;;;;;;;9.73;92.05;100626.56;4934095;28;20052;-83
2022/10/21 04:01:28;;;;;;;10.88;6.72;;;;;;;9.76;92.00;100633.41;4927163;28;20035;-84
2022/10/21 04:03:55;;;;;;;11.85;6.68;;;;;;;9.76;92.72;100626.38;4949303;29;20142;-83
2022/10/21 04:06:23;;;;;;;9.05;6.57;;;;;;;9.75;93.34;100621.22;4963352;28;20047;-82
2022/10/21 04:08:51;;;;;;;10.00;6.78;;;;;;;9.71;92.98;100614.41;4930155;29;20056;-84
2022/10/21 04:11:18;;;;;;;10.30;6.97;;;;;;;9.74;93.48;100615.09;4959049;28;20043;-82
2022/10/21 04:13:46;;;;;;;13.98;7.50;;;;;;;9.72;93.33;100613.47;4931895;29;20070;-83
2022/10/21 04:16:16;;;;;;;9.10;6.65;;;;;;;9.68;93.68;100599.69;4942279;29;20071;-83
2022/10/21 04:18:44;;;;;;;10.60;7.38;;;;;;;9.70;93.56;100596.97;4943978;29;20129;-83
2022/10/21 04:21:12;;;;;;;9.27;7.18;;;;;;;9.69;94.22;100588.22;4927730;28;20106;-84
2022/10/21 04:23:40;;;;;;;10.98;7.55;;;;;;;9.68;93.68;100576.03;4934297;29;20074;-83
2022/10/21 04:26:08;;;;;;;9.38;7.25;;;;;;;9.69;93.67;100579.50;4928767;29;20409;-83
2022/10/21 04:28:35;;;;;;;10.73;7.07;;;;;;;9.69;94.11;100571.63;4913596;29;20054;-81
2022/10/21 04:31:03;;;;;;;12.13;7.10;;;;;;;9.68;93.77;100565.50;4930347;28;20069;-83
2022/10/21 04:33:31;;;;;;;12.05;7.80;;;;;;;9.69;94.17;100561.09;4946934;29;20055;-82
2022/10/21 04:35:58;;;;;;;12.55;7.13;;;;;;;9.70;93.86;100542.59;4946579;28;20106;-82
2022/10/21 04:38:26;;;;;;;10.48;6.88;;;;;;;9.68;94.14;100541.84;4946707;29;20066;-83
2022/10/21 04:40:59;;;;;;;8.10;6.13;;;;;;;9.71;93.70;100543.44;4947130;29;20140;-81
2022/10/21 04:43:27;;;;;;;15.90;7.70;;;;;;;9.72;94.13;100534.63;4947026;28;20101;-82
2022/10/21 04:45:55;;;;;;;12.27;7.85;;;;;;;9.73;93.60;100536.34;4964571;28;20356;-82
2022/10/21 04:48:23;;;;;;;10.95;7.50;;;;;;;9.71;94.00;100538.19;4952827;28;20541;-82
2022/10/21 04:50:52;;;;;;;11.15;7.70;;;;;;;9.73;93.57;100534.56;4966056;28;20070;-80
2022/10/21 04:53:20;;;;;;;9.30;7.55;;;;;;;9.73;93.77;100520.56;4948017;28;20059;-81
2022/10/21 04:55:52;;;;;;;10.43;8.02;;;;;;;9.71;93.96;100531.16;4945066;28;20077;-80
2022/10/21 04:58:20;;;;;;;11.85;7.85;;;;;;;9.71;94.47;100531.16;4929440;28;20051;-80
2022/10/21 05:00:50;;;;;;;11.35;7.47;;;;;;;9.71;94.13;100520.63;4943202;28;20082;-82
2022/10/21 05:03:19;;;;;;;13.23;7.78;;;;;;;9.70;94.18;100523.34;4927724;29;20449;-81
2022/10/21 05:05:53;;;;;;;12.10;7.75;;;;;;;9.70;94.63;100510.22;4931159;29;20074;-83
2022/10/21 05:08:22;;;;;;;11.07;7.47;;;;;;;9.67;94.58;100505.13;4927319;28;20062;-80
2022/10/21 05:10:58;;;;;;;13.60;7.68;;;;;;;9.64;94.75;100493.88;4958424;28;20038;-81
2022/10/21 05:13:27;;;;;;;9.45;7.15;;;;;;;9.61;94.13;100504.53;4943479;28;20051;-84
2022/10/21 05:15:59;;;;;;;12.02;7.53;;;;;;;9.64;94.31;100490.41;4944222;28;20046;-82
2022/10/21 05:18:26;;;;;;;9.73;7.53;;;;;;;9.66;94.20;100483.25;4953448;28;20047;-82
2022/10/21 05:20:55;;;;;;;11.90;8.18;;;;;;;9.68;94.30;100468.25;4958941;28;20098;-83
2022/10/21 05:23:23;;;;;;;11.27;7.88;;;;;;;9.71;94.43;100475.09;4920210;28;20573;-84
2022/10/21 05:25:51;;;;;;;12.05;6.70;;;;;;;9.71;94.15;100491.72;4949113;29;20052;-82
2022/10/21 05:28:19;;;;;;;11.40;8.20;;;;;;;9.73;94.33;100500.38;4933710;29;20123;-82
2022/10/21 05:30:47;;;;;;;11.52;8.18;;;;;;;9.73;94.17;100496.91;4937833;29;20054;-83
2022/10/21 05:33:16;;;;;;;10.38;7.90;;;;;;;9.70;94.54;100494.44;4963238;28;20075;-83
2022/10/21 05:35:43;;;;;;;14.85;7.60;;;;;;;9.72;94.51;100480.25;4961856;28;20118;-82
2022/10/21 05:38:11;;;;;;;13.00;8.13;;;;;;;9.73;94.77;100489.03;4966751;28;20094;-82
2022/10/21 05:40:39;;;;;;;13.88;7.47;;;;;;;9.73;94.81;100481.13;4939309;29;20168;-82
2022/10/21 05:43:06;;;;;;;16.98;8.13;;;;;;;9.72;94.87;100479.41;4948440;28;20294;-83
2022/10/21 05:45:34;;;;;;;11.93;8.27;;;;;;;9.75;94.90;100482.72;4954401;28;20056;-82
2022/10/21 05:48:02;;;;;;;12.48;7.50;;;;;;;9.74;94.95;100475.78;4949848;29;20103;-85
2022/10/21 05:50:29;;;;;;;13.75;7.57;;;;;;;9.76;94.92;100471.25;4932725;28;20119;-82
2022/10/21 05:53:02;;;;;;;11.30;8.88;;;;;;;9.79;94.38;100475.50;4943813;29;20051;-83
2022/10/21 05:55:37;;;;;;;10.25;8.30;;;;;;;9.80;94.58;100475.41;4967492;28;20636;-81
2022/10/21 05:58:08;;;;;;;16.42;7.90;;;;;;;9.84;94.68;100476.09;4949286;29;20117;-81
2022/10/21 06:00:39;;;;;;;16.23;8.32;;;;;;;9.84;94.52;100469.03;4933933;29;20058;-83
2022/10/21 06:03:09;;;;;;;11.35;7.93;;;;;;;9.82;94.38;100475.34;4962697;28;20070;-82
2022/10/21 06:05:44;;;;;;;11.95;8.20;;;;;;;9.83;95.08;100469.13;4952345;28;20043;-81
2022/10/21 06:08:13;;;;;;;11.05;8.90;;;;;;;9.84;94.99;100469.03;4939306;28;20047;-82
2022/10/21 06:10:45;;;;;;;13.25;8.18;;;;;;;9.86;94.11;100454.03;4922915;29;20075;-82
2022/10/21 06:13:13;;;;;;;12.00;8.07;;;;;;;9.89;93.96;100471.41;4934263;28;20048;-82
2022/10/21 06:16:05;;;;;;;11.30;8.43;;;;;;;9.86;94.38;100466.31;4924825;29;20039;-83
2022/10/21 06:18:38;;;;;;;15.85;7.97;;;;;;;9.89;94.62;100468.78;4934926;29;20058;-82
2022/10/21 06:21:07;;;;;;;12.50;7.45;;;;;;;9.88;94.70;100462.66;4940403;29;20066;-85
2022/10/21 06:23:45;;;;;;;14.98;7.95;;;;;;;9.91;95.29;100477.44;4947838;28;20063;-82
2022/10/21 06:26:15;;;;;;;10.23;8.18;;;;;;;9.93;95.02;100480.81;4946289;29;20114;-84
2022/10/21 06:28:45;;;;;;;10.13;8.07;;;;;;;9.94;93.79;100482.50;4942504;29;20059;-79
2022/10/21 06:31:23;;;;;;;13.18;8.68;;;;;;;9.96;95.39;100472.75;4975682;28;20052;-79
2022/10/21 06:34:04;;;;;;;12.00;8.88;;;;;;;9.96;95.43;100485.91;4942767;29;20155;-80
2022/10/21 06:36:32;;;;;;;13.20;8.45;;;;;;;9.95;95.89;100483.34;4940768;28;20054;-79
2022/10/21 06:39:01;;;;;;;10.60;8.05;;;;;;;9.96;95.46;100471.91;4954871;28;20058;-80
2022/10/21 06:41:30;;;;;;;12.60;8.95;;;;;;;9.95;96.86;100465.81;4916689;28;20391;-79
2022/10/21 06:43:57;;;;;;;11.40;8.70;;;;;;;9.91;96.89;100472.19;4920294;29;20055;-80
2022/10/21 06:46:25;;;;;;;14.27;9.50;;;;;;;9.92;97.92;100478.28;4954299;28;20084;-79
2022/10/21 06:48:53;;;;;;;13.75;9.38;;;;;;;9.92;97.59;100483.53;4929032;29;20048;-79
2022/10/21 06:51:22;;;;;;;12.88;9.32;;;;;;;9.93;98.84;100490.47;4938849;28;20127;-80
2022/10/21 06:53:55;;;;;;;16.35;9.23;;;;;;;9.94;98.44;100479.03;4953862;28;20055;-80
2022/10/21 06:56:23;;;;;;;11.98;9.02;;;;;;;9.93;99.13;100486.06;4954819;28;20055;-80
2022/10/21 06:58:50;;;;;;;13.02;9.30;;;;;;;9.98;99.44;100475.28;4947577;29;20059;-80
2022/10/21 07:01:20;;;;;;;13.50;9.10;;;;;;;9.96;99.63;100475.38;4934378;28;20518;-80
2022/10/21 07:04:08;;;;;;;15.00;9.50;;;;;;;9.98;100.00;100475.28;4947946;28;20070;-80
2022/10/21 07:06:36;;;;;;;16.25;10.05;;;;;;;10.00;99.87;100476.91;4911134;29;20490;-79
2022/10/21 07:09:06;;;;;;;13.02;10.07;;;;;;;10.02;99.81;100482.91;4934389;29;20103;-79
2022/10/21 07:11:33;;;;;;;11.75;9.15;;;;;;;10.05;100.00;100476.63;4945734;28;20048;-80
2022/10/21 07:14:01;;;;;;;12.45;9.18;;;;;;;10.09;100.00;100471.09;4928108;29;20055;-79
2022/10/21 07:16:34;;;;;;;14.95;9.55;;;;;;;10.10;100.00;100477.19;4958072;28;20122;-80
2022/10/21 07:19:02;;;;;;;13.32;10.15;;;;;;;10.13;100.00;100491.00;4959946;28;20101;-79
2022/10/21 07:21:31;;;;;;;16.02;9.82;;;;;;;10.15;100.00;100497.00;4945466;28;20048;-79
2022/10/21 07:23:59;;;;;;;17.20;9.23;;;;;;;10.22;100.00;100504.53;4939881;28;20058;-80
2022/10/21 07:26:29;;;;;;;16.73;9.32;;;;;;;10.23;100.00;100495.72;4926571;29;20051;-80
2022/10/21 07:28:59;;;;;;;20.40;9.35;;;;;;;10.20;99.99;100502.00;4937971;29;20059;-80
2022/10/21 07:31:29;;;;;;;12.93;9.05;;;;;;;10.22;100.00;100496.63;4941895;29;20429;-80
2022/10/21 07:33:58;;;;;;;12.50;9.90;;;;;;;10.18;100.00;100493.38;4945643;29;20051;-80
2022/10/21 07:36:29;;;;;;;19.27;9.88;;;;;;;10.22;100.00;100494.00;4938231;28;20383;-80
2022/10/21 07:39:01;;;;;;;14.90;9.75;;;;;;;10.25;100.00;100496.50;4934129;29;20110;-81
2022/10/21 07:41:39;;;;;;;18.23;9.48;;;;;;;10.27;99.95;100499.91;4928607;29;20102;-79
2022/10/21 07:44:08;;;;;;;14.95;9.70;;;;;;;10.32;99.75;100493.44;4942619;29;20047;-79
2022/10/21 07:46:38;;;;;;;16.00;9.15;;;;;;;10.34;99.49;100488.06;4921956;28;20394;-79
2022/10/21 07:49:07;;;;;;;15.88;9.00;;;;;;;10.39;99.33;100492.09;4924721;29;20047;-80
2022/10/21 07:51:34;;;;;;;17.58;10.13;;;;;;;10.40;98.78;100492.94;4942392;29;20047;-79
2022/10/21 07:54:02;;;;;;;15.88;10.15;;;;;;;10.44;98.94;100483.09;4964234;28;20083;-80
2022/10/21 07:56:34;;;;;;;11.95;9.75;;;;;;;10.43;99.13;100487.50;4940800;28;20059;-80
2022/10/21 07:59:03;;;;;;;11.85;8.60;;;;;;;10.48;99.23;100495.97;4957957;28;20062;-80
2022/10/21 08:01:35;;;;;;;11.75;9.65;;;;;;;10.50;98.27;100493.25;4955501;29;20544;-79
2022/10/21 08:04:03;;;;;;;13.52;9.65;;;;;;;10.54;98.47;100486.88;4908711;29;20039;-79
2022/10/21 08:06:31;;;;;;;15.05;9.00;;;;;;;10.53;98.27;100486.00;4956213;28;20229;-80
2022/10/21 08:08:58;;;;;;;13.23;9.23;;;;;;;10.57;98.17;100481.41;4947564;29;20055;-80
2022/10/21 08:11:28;;;;;;;13.48;9.45;;;;;;;10.61;98.67;100490.81;4957786;28;20262;-80
2022/10/21 08:13:56;;;;;;;15.55;9.18;;;;;;;10.66;97.78;100491.38;4957584;28;20486;-80
2022/10/21 08:16:25;;;;;;;12.90;9.43;;;;;;;10.69;97.80;100496.44;4950196;28;20057;-80
2022/10/21 08:18:53;;;;;;;15.05;8.63;;;;;;;10.68;97.96;100501.81;4968848;28;20057;-80
2022/10/21 08:21:21;;;;;;;13.43;9.43;;;;;;;10.69;98.02;100485.06;4952883;29;20047;-81
2022/10/21 08:23:48;;;;;;;13.23;9.30;;;;;;;10.72;97.75;100485.75;4958648;28;20047;-80
2022/10/21 08:26:15;;;;;;;15.70;8.88;;;;;;;10.75;97.74;100487.31;4954183;28;20071;-80
2022/10/21 08:28:43;;;;;;;16.73;9.15;;;;;;;10.82;97.38;100480.75;4964711;28;20058;-81
2022/10/21 08:31:17;;;;;;;12.27;8.38;;;;;;;10.87;97.00;100483.94;4944004;29;20437;-81
2022/10/21 08:33:45;;;;;;;14.40;9.10;;;;;;;10.90;96.96;100481.13;4945440;29;20184;-80
2022/10/21 08:36:19;;;;;;;17.80;9.63;;;;;;;10.93;96.94;100480.06;4958965;28;20055;-81
2022/10/21 08:38:47;;;;;;;15.20;8.70;;;;;;;10.96;96.62;100470.19;4943015;29;20083;-81
2022/10/21 08:41:26;;;;;;;13.50;9.15;;;;;;;10.99;96.59;100462.09;4952368;29;20070;-80
2022/10/21 08:44:33;;;;;;;12.55;8.68;;;;;;;11.05;96.62;100464.34;4959141;28;20055;-79
2022/10/21 08:47:11;;;;;;;12.75;9.25;;;;;;;11.11;95.66;100461.31;4958353;28;20058;-80
2022/10/21 08:49:47;;;;;;;13.82;9.48;;;;;;;11.15;96.11;100454.06;4945800;28;20047;-80
2022/10/21 08:52:20;;;;;;;13.85;8.95;;;;;;;11.24;95.92;100450.00;4923530;29;20055;-80
2022/10/21 08:55:03;;;;;;;13.40;8.98;;;;;;;11.31;95.61;100457.41;4938477;29;20075;-80
2022/10/21 08:57:33;;;;;;;13.63;8.98;;;;;;;11.38;95.41;100452.56;4918010;29;20066;-80
2022/10/21 09:00:10;;;;;;;11.10;8.52;;;;;;;11.47;94.96;100462.50;4955838;28;20510;-81
2022/10/21 09:03:08;;;;;;;13.43;8.30;;;;;;;11.52;95.08;100456.94;4941301;29;20050;-80
2022/10/21 09:05:55;;;;;;;14.50;8.48;;;;;;;11.57;94.97;100458.34;4971628;28;20160;-80
2022/10/21 09:08:41;;;;;;;17.23;9.63;;;;;;;11.59;94.61;100450.34;4977683;28;20027;-81
2022/10/21 09:11:19;;;;;;;12.18;9.27;;;;;;;11.69;94.66;100438.22;4960154;28;20067;-80
2022/10/21 09:14:00;;;;;;;13.00;9.23;;;;;;;11.70;94.08;100437.25;4947404;29;20517;-80
2022/10/21 09:17:19;;;;;;;12.23;8.55;;;;;;;11.76;94.19;100422.84;4944847;29;20051;-83
2022/10/21 09:20:08;;;;;;;12.38;9.38;;;;;;;11.82;93.91;100423.31;4913576;29;20079;-83
2022/10/21 09:22:45;;;;;;;18.77;9.32;;;;;;;11.89;93.50;100421.94;4902916;29;20077;-81
2022/10/21 09:25:19;;;;;;;15.18;9.30;;;;;;;11.91;93.24;100425.31;4919986;28;20059;-82
2022/10/21 09:27:47;;;;;;;18.85;9.70;;;;;;;11.99;92.39;100424.81;4965414;28;20347;-82
2022/10/21 09:30:23;;;;;;;11.52;8.98;;;;;;;12.04;92.27;100416.56;4959563;28;20123;-83
2022/10/21 09:32:56;;;;;;;13.27;9.15;;;;;;;12.13;92.57;100423.88;4944204;29;20110;-83
2022/10/21 09:35:47;;;;;;;12.43;9.18;;;;;;;12.22;92.28;100427.66;4937155;28;20051;-82
2022/10/21 09:38:39;;;;;;;13.25;9.00;;;;;;;12.32;91.13;100426.06;4952004;28;20107;-82
2022/10/21 09:41:13;;;;;;;17.40;9.15;;;;;;;12.44;90.29;100421.75;4950762;28;20078;-81
2022/10/21 09:43:42;;;;;;;13.52;9.63;;;;;;;12.59;89.96;100431.22;4942488;29;20502;-83
2022/10/21 09:46:12;;;;;;;10.27;8.73;;;;;;;12.67;90.17;100413.88;4927936;28;20421;-84
2022/10/21 09:48:52;;;;;;;16.00;9.10;;;;;;;12.74;89.39;100418.72;4946214;28;20059;-87
2022/10/21 09:51:41;;;;;;;13.63;8.88;;;;;;;12.80;89.09;100427.06;4931609;28;20054;-85
2022/10/21 09:54:19;;;;;;;13.95;9.68;;;;;;;12.92;88.41;100427.97;4938356;28;20050;-84
2022/10/21 09:57:09;;;;;;;16.42;9.35;;;;;;;13.00;87.39;100435.34;4926237;29;20043;-84
2022/10/21 09:59:50;;;;;;;16.45;8.30;;;;;;;13.11;86.34;100428.34;4926784;28;20038;-86
2022/10/21 10:02:29;;;;;;;15.00;9.85;;;;;;;13.15;86.16;100421.06;4923483;29;20443;-85
2022/10/21 10:05:00;;;;;;;12.63;9.48;;;;;;;13.20;85.76;100426.00;4941574;29;20047;-86
2022/10/21 10:07:35;;;;;;;13.18;9.02;;;;;;;13.25;85.09;100430.03;4942083;28;20380;-84
2022/10/21 10:10:29;;;;;;;11.93;8.63;;;;;;;13.29;85.12;100420.91;4927722;29;20056;-83
2022/10/21 10:12:58;;;;;;;15.45;9.88;;;;;;;13.37;84.43;100420.31;4956432;28;20043;-83
2022/10/21 10:15:34;;;;;;;11.80;9.52;;;;;;;13.47;84.32;100407.28;4944386;28;20108;-84
2022/10/21 10:18:03;;;;;;;13.15;9.65;;;;;;;13.57;84.31;100398.53;4933257;29;20083;-85
2022/10/21 10:20:34;;;;;;;14.88;8.98;;;;;;;13.67;84.35;100394.25;4930498;28;20542;-86
2022/10/21 10:23:04;;;;;;;15.75;8.88;;;;;;;13.81;84.35;100397.66;4943998;29;20047;-81
2022/10/21 10:25:35;;;;;;;14.18;9.23;;;;;;;13.89;84.20;100397.91;4939425;28;20102;-84
2022/10/21 10:28:16;;;;;;;16.73;9.48;;;;;;;14.02;83.09;100400.47;4926863;29;20509;-82
2022/10/21 10:30:44;;;;;;;18.38;10.35;;;;;;;14.04;82.83;100391.44;4927011;29;20107;-80
2022/10/21 10:33:21;;;;;;;14.15;10.65;;;;;;;14.05;81.95;100393.13;4962044;28;20047;-82
2022/10/21 10:35:51;;;;;;;15.52;9.35;;;;;;;14.08;81.91;100392.88;4955026;28;20051;-78
2022/10/21 10:38:34;;;;;;;15.00;11.43;;;;;;;14.13;81.13;100384.59;4941416;29;20119;-80
2022/10/21 10:41:10;;;;;;;16.25;10.38;;;;;;;14.16;80.98;100400.25;4941353;29;20052;-79
2022/10/21 10:43:58;;;;;;;13.30;9.55;;;;;;;14.14;80.76;100384.47;4963246;28;20062;-79
2022/10/21 10:46:32;;;;;;;12.77;9.63;;;;;;;14.23;80.47;100374.97;4924980;29;20506;-80
2022/10/21 10:49:05;;;;;;;13.95;9.70;;;;;;;14.27;80.59;100383.50;4916638;29;20058;-80
2022/10/21 10:51:34;;;;;;;17.95;9.55;;;;;;;14.34;79.45;100367.03;4930553;28;20049;-82
2022/10/21 10:54:05;;;;;;;13.45;9.73;;;;;;;14.39;79.70;100359.56;4940187;29;20047;-82
2022/10/21 10:56:41;;;;;;;13.52;8.88;;;;;;;14.57;79.50;100357.28;4953342;28;20050;-81
2022/10/21 10:59:39;;;;;;;15.57;10.68;;;;;;;14.79;78.81;100358.22;4951484;29;20082;-82
2022/10/21 11:02:08;;;;;;;12.43;8.65;;;;;;;14.96;76.99;100349.75;4963418;28;20066;-82
2022/10/21 11:04:59;;;;;;;11.02;8.50;;;;;;;15.02;75.72;100351.88;4937396;29;20038;-86
2022/10/21 11:07:34;;;;;;;25.63;11.00;;;;;;;15.00;76.41;100348.53;4965085;28;20070;-81
2022/10/21 11:10:21;;;;;;;17.52;9.95;;;;;;;15.01;76.70;100347.56;4934290;28;20134;-82
2022/10/21 11:12:48;;;;;;;11.60;8.27;;;;;;;15.08;76.57;100342.59;4970870;28;20034;-82
2022/10/21 11:15:16;;;;;;;13.07;9.85;;;;;;;15.18;76.25;100338.22;4948317;28;20051;-82
2022/10/21 11:18:00;;;;;;;14.25;9.75;;;;;;;15.16;75.87;100338.34;4949640;28;20070;-81
2022/10/21 11:21:06;;;;;;;14.00;9.10;;;;;;;15.25;75.57;100342.03;4939753;29;20051;-82
2022/10/21 11:23:52;;;;;;;15.25;9.25;;;;;;;15.27;75.72;100345.41;4954694;28;20058;-82
2022/10/21 11:26:31;;;;;;;12.02;8.90;;;;;;;15.28;74.35;100344.44;4924631;28;20110;-81
2022/10/21 11:29:36;;;;;;;11.38;9.10;;;;;;;15.33;74.02;100341.41;4962972;28;20051;-81
2022/10/21 11:32:15;;;;;;;10.82;8.70;;;;;;;15.34;73.86;100330.66;4955035;28;20075;-82
2022/10/21 11:35:04;;;;;;;11.13;8.00;;;;;;;15.40;74.46;100337.25;4962143;28;20055;-81
2022/10/21 11:37:43;;;;;;;13.70;9.73;;;;;;;15.44;73.38;100330.72;4949015;28;20074;-79
2022/10/21 11:40:41;;;;;;;12.60;9.68;;;;;;;15.61;72.66;100339.94;4963912;28;20050;-80
2022/10/21 11:43:38;;;;;;;11.30;8.95;;;;;;;15.90;72.15;100338.34;4974752;28;20043;-80
2022/10/21 11:46:31;;;;;;;13.90;8.38;;;;;;;16.00;71.65;100330.41;4971347;28;20051;-79
2022/10/21 11:49:07;;;;;;;13.48;8.90;;;;;;;16.04;72.02;100336.31;4952336;29;20048;-80
2022/10/21 11:52:00;;;;;;;;;;;;;;;16.08;72.23;100338.56;4929293;28;20059;-80